Marshall Army Air Field Fort Riley(Junction City) US
ICAO: KFRI
IATA: FRI
Category: Medium
Scheduled Services: No

Elevation: 1065 ft
TransAlt. 18000 ft.

Airport Communications:
VFR ADVSY SVC:126.2
KANSAS CITY CNTR:127.35
ASOS:118.375
CTAF:126.2
RANGE CON:40.8
OPS:40.55

KFRI Zoom In..

Runways:

(A) RW 04 length 4503 ft width 100 ft
---- / hdg 44

(B) RW 22 length 4503 ft width 100 ft
---- / hdg 224

Location; KFRI
Day. 05 / Time. 14.56 Zulu
* Altimeter: 29.92
* Temperature: 29° c. 84.2°f.
* Wind from: 190° Speed 07 kn.
Dewpoint: 18° c.
Visibility: 10 Statute Miles.
Clouds: Clear (automated report).

KFRI 051456Z AUTO 19007KT 10SM CLR 29/18 A2992 RMK AO2 SLP118 50018


Wind From 190°
Speed 07 kn.

 
 
jpsmedia worldairports.se 2020   terms of use